Archival Weather

Republic

Farmingdale, New York (KFRG)

Report from: Wednesday, February 14, 2024 7:53 AM EST
Current time: Friday, June 14, 2024 9:41 AM EDT

Current weather – Weather history – Daily summaries
Weather forecast

Temperature-1.7°C (28.9°F)
Wind chill-8.2°C (17.3°F)
Dew point-11.7°C (10.9°F)
Winds 14 kts (7.2 m/s, 16.1 mph) West-Northwest (300°)
Wind gusts 30 kts (15.4 m/s, 34.5 mph)
Peak wind 31 kts (15.9 m/s, 35.7 mph) North-Northwest (330°) at 12:39
Visibility10 mi. (16.1 km)
Clouds Sky clear
Altimeter29.97 in.Hg (1015 mB)
Relative humidity46 %
Density altitude-2,057 ft. (-627 m)
Sea-level pressure101.5 kPa (1015 mB, 29.97 in.Hg)
Remarks Fully automated report
Automated weather observing station without precipitation discriminator
Freezing rain sensor not operating
Flight conditions Visual Meteorological Conditions
Raw dataKFRG 141253Z AUTO 30014G30KT 10SM CLR M02/M12 A2997 RMK AO1 PK WND 33031/1239 SLP148 T10171117 FZRANO
An error has occurred. This application may no longer respond until reloaded. Reload 🗙